createdAt,value
2022-10-24T00:01:44.999Z,83.27
2022-10-24T00:04:47.509Z,83.28
2022-10-24T00:07:50.610Z,83.28
2022-10-24T00:10:53.191Z,83.24
2022-10-24T00:13:57.505Z,83.24
2022-10-24T00:17:00.076Z,83.26
2022-10-24T00:20:03.892Z,83.28
2022-10-24T00:23:06.631Z,83.23
2022-10-24T00:26:10.280Z,83.25
2022-10-24T00:29:12.959Z,83.29
2022-10-24T00:32:15.363Z,83.24
2022-10-24T00:35:18.192Z,83.22
2022-10-24T00:38:20.403Z,83.29
2022-10-24T00:41:26.367Z,83.32
2022-10-24T00:44:32.248Z,83.32
2022-10-24T00:47:34.689Z,83.26
2022-10-24T00:50:36.918Z,83.21
2022-10-24T00:53:45.255Z,83.38
2022-10-24T00:56:58.505Z,83.41
2022-10-24T01:00:06.616Z,83.41
2022-10-24T01:03:11.384Z,83.42
2022-10-24T01:06:41.489Z,83.34
2022-10-24T01:10:08.099Z,83.40
2022-10-24T01:13:22.703Z,83.35
2022-10-24T01:16:37.646Z,83.30
2022-10-24T01:19:58.948Z,83.27
2022-10-24T01:23:37.741Z,83.45
2022-10-24T01:26:59.409Z,83.52
2022-10-24T01:30:10.025Z,83.58
2022-10-24T01:33:22.343Z,83.64
2022-10-24T01:36:43.053Z,83.64
2022-10-24T01:39:52.352Z,83.70
2022-10-24T01:42:59.571Z,83.60
2022-10-24T01:46:08.311Z,83.65
2022-10-24T01:49:17.560Z,83.64
2022-10-24T01:52:21.521Z,83.71
2022-10-24T01:55:24.160Z,83.70
2022-10-24T01:58:26.901Z,83.69
2022-10-24T02:01:29.838Z,83.80
2022-10-24T02:04:34.464Z,83.77
2022-10-24T02:07:40.407Z,83.82
2022-10-24T02:10:50.846Z,83.97
2022-10-24T02:14:08.454Z,83.96
2022-10-24T02:17:11.369Z,84.04
2022-10-24T02:20:14.385Z,84.16
2022-10-24T02:23:25.531Z,84.21
2022-10-24T02:26:46.369Z,84.26
2022-10-24T02:29:57.619Z,84.36
2022-10-24T02:33:01.743Z,84.53
2022-10-24T02:36:04.955Z,84.58
2022-10-24T02:39:11.300Z,84.59
2022-10-24T02:42:15.994Z,84.65
2022-10-24T02:45:19.751Z,84.79
2022-10-24T02:48:28.742Z,84.75
2022-10-24T02:51:35.335Z,84.76
2022-10-24T02:54:37.639Z,84.76
2022-10-24T02:57:40.125Z,84.74
2022-10-24T03:00:42.452Z,84.66
2022-10-24T03:03:45.187Z,84.68
2022-10-24T03:06:47.491Z,84.69
2022-10-24T03:09:50.610Z,84.58
2022-10-24T03:12:52.859Z,84.51
2022-10-24T03:15:58.275Z,84.50
2022-10-24T03:19:00.501Z,84.42
2022-10-24T03:22:03.056Z,84.39
2022-10-24T03:25:06.400Z,84.45
2022-10-24T03:28:08.839Z,84.54
2022-10-24T03:31:11.145Z,84.70
2022-10-24T03:34:13.632Z,84.77
2022-10-24T03:37:15.916Z,84.87
2022-10-24T03:40:18.580Z,84.98
2022-10-24T03:43:20.790Z,84.88
2022-10-24T03:46:23.331Z,84.90
2022-10-24T03:49:25.690Z,84.88
2022-10-24T03:52:28.198Z,84.86
2022-10-24T03:55:30.461Z,84.85
2022-10-24T03:58:32.943Z,84.82
2022-10-24T04:01:35.391Z,84.73
2022-10-24T04:04:37.972Z,84.72
2022-10-24T04:07:40.510Z,84.49
2022-10-24T04:10:43.018Z,84.41
2022-10-24T04:13:45.326Z,84.41
2022-10-24T04:16:47.847Z,84.46
2022-10-24T04:19:50.106Z,84.36
2022-10-24T04:22:53.119Z,84.40
2022-10-24T04:25:55.316Z,84.41
2022-10-24T04:28:57.799Z,84.40
2022-10-24T04:32:00.266Z,84.47
2022-10-24T04:35:04.246Z,84.33
2022-10-24T04:38:06.501Z,84.29
2022-10-24T04:41:11.365Z,84.24
2022-10-24T04:44:14.546Z,84.21
2022-10-24T04:47:17.857Z,84.29
2022-10-24T04:50:20.080Z,84.22
2022-10-24T04:53:22.750Z,84.30
2022-10-24T04:56:26.835Z,84.16
2022-10-24T04:59:29.506Z,84.02
2022-10-24T05:02:31.784Z,83.93
2022-10-24T05:05:34.440Z,83.93
2022-10-24T05:08:36.691Z,83.94
2022-10-24T05:11:39.767Z,84.07
2022-10-24T05:14:42.615Z,84.05
2022-10-24T05:17:45.394Z,84.12
2022-10-24T05:20:47.605Z,84.16
2022-10-24T05:23:50.128Z,84.25
2022-10-24T05:26:52.298Z,84.27
2022-10-24T05:29:54.857Z,84.28
2022-10-24T05:32:57.226Z,84.25
2022-10-24T05:35:59.713Z,84.27
2022-10-24T05:39:03.088Z,84.13
2022-10-24T05:42:05.986Z,83.92
2022-10-24T05:45:09.861Z,83.72
2022-10-24T05:48:12.354Z,83.67
2022-10-24T05:51:17.464Z,83.51
2022-10-24T05:54:22.098Z,83.39
2022-10-24T05:57:27.320Z,83.29
2022-10-24T06:04:43.635Z,83.12
2022-10-24T06:15:59.339Z,82.88
2022-10-24T06:33:22.272Z,82.73
2022-10-24T06:36:30.715Z,82.69
2022-10-24T06:39:34.080Z,82.62
2022-10-24T06:42:36.676Z,82.55
2022-10-24T06:45:39.179Z,82.45
2022-10-24T06:48:41.799Z,82.42
2022-10-24T06:51:46.834Z,82.38
2022-10-24T06:54:49.522Z,82.37
2022-10-24T06:57:53.447Z,82.33
2022-10-24T07:00:59.652Z,82.39
2022-10-24T07:04:02.430Z,82.30
2022-10-24T07:11:23.427Z,82.41
2022-10-24T07:18:33.343Z,82.59
2022-10-24T07:21:39.544Z,82.74
2022-10-24T07:24:49.032Z,82.85
2022-10-24T07:28:12.510Z,82.79
2022-10-24T07:34:36.428Z,82.64
2022-10-24T07:37:42.550Z,82.70
2022-10-24T07:40:52.833Z,82.74
2022-10-24T07:43:59.896Z,82.70
2022-10-24T07:47:16.352Z,82.78
2022-10-24T07:50:29.562Z,82.99
2022-10-24T07:58:16.673Z,83.59
2022-10-24T08:01:35.697Z,83.84
2022-10-24T08:08:59.740Z,84.04
2022-10-24T08:12:02.751Z,84.17
2022-10-24T08:15:18.691Z,84.22
2022-10-24T08:22:17.374Z,84.62
2022-10-24T08:25:25.438Z,84.77
2022-10-24T08:28:31.515Z,84.89
2022-10-24T08:40:26.265Z,84.68
2022-10-24T08:44:39.068Z,84.56
2022-10-24T08:48:33.593Z,84.50
2022-10-24T08:52:29.852Z,84.54
2022-10-24T08:56:09.484Z,84.32
2022-10-24T08:59:13.901Z,84.20
2022-10-24T09:02:28.416Z,83.88
2022-10-24T09:13:52.646Z,82.17
2022-10-24T09:17:22.527Z,81.32
2022-10-24T09:20:29.013Z,80.71
2022-10-24T09:23:36.194Z,80.30
2022-10-24T09:26:43.097Z,80.33
2022-10-24T09:30:10.934Z,80.28
2022-10-24T09:33:24.553Z,80.33
2022-10-24T09:36:30.227Z,80.41
2022-10-24T09:39:35.904Z,80.39
2022-10-24T09:43:14.458Z,80.31
2022-10-24T10:15:53.210Z,79.58
2022-10-24T14:36:32.489Z,78.75
2022-10-24T14:39:35.628Z,79.29
2022-10-24T14:42:42.594Z,79.27
2022-10-24T14:46:28.841Z,79.13
2022-10-24T14:49:53.336Z,79.07
2022-10-24T14:53:00.906Z,79.02
2022-10-24T14:56:27.242Z,79.48
2022-10-24T14:59:38.119Z,79.53
2022-10-24T15:02:43.404Z,79.42
2022-10-24T15:06:08.321Z,79.29
2022-10-24T15:09:10.461Z,79.21
2022-10-24T15:12:13.881Z,79.15
2022-10-24T15:15:23.436Z,79.16
2022-10-24T15:18:29.647Z,79.17
2022-10-24T15:21:39.019Z,79.15
2022-10-24T15:24:44.273Z,79.25
2022-10-24T15:27:47.346Z,79.37
2022-10-24T15:30:50.098Z,79.33
2022-10-24T15:33:52.373Z,79.30
2022-10-24T15:36:56.932Z,79.37
2022-10-24T15:40:03.927Z,79.43
2022-10-24T15:43:12.576Z,79.47
2022-10-24T15:46:15.865Z,79.53
2022-10-24T15:49:18.752Z,79.56
2022-10-24T15:52:20.911Z,79.74
2022-10-24T15:55:26.778Z,79.79
2022-10-24T15:58:29.069Z,80.16
2022-10-24T16:01:37.260Z,80.28
2022-10-24T16:04:42.491Z,80.38
2022-10-24T16:07:45.364Z,80.44
2022-10-24T16:10:50.609Z,80.38
2022-10-24T16:13:53.083Z,80.40
2022-10-24T16:16:55.768Z,80.41
2022-10-24T16:19:58.101Z,80.47
2022-10-24T16:23:00.716Z,80.66
2022-10-24T16:26:02.970Z,80.87
2022-10-24T16:29:06.355Z,81.36
2022-10-24T16:32:09.957Z,81.28
2022-10-24T16:35:17.124Z,81.76
2022-10-24T16:38:19.311Z,81.92
2022-10-24T16:41:24.882Z,81.89
2022-10-24T16:44:27.733Z,81.47
2022-10-24T16:47:30.372Z,81.86
2022-10-24T16:50:32.918Z,81.84
2022-10-24T16:53:35.470Z,81.91
2022-10-24T16:56:37.941Z,81.79
2022-10-24T16:59:40.567Z,81.86
2022-10-24T17:02:48.562Z,81.81
2022-10-24T17:05:52.564Z,81.75
2022-10-24T17:08:54.856Z,81.76
2022-10-24T17:12:00.037Z,81.78
2022-10-24T17:15:02.412Z,81.67
2022-10-24T17:18:05.276Z,81.72
2022-10-24T17:21:07.747Z,82.07
2022-10-24T17:24:11.974Z,81.98
2022-10-24T17:27:15.178Z,81.96
2022-10-24T17:30:25.759Z,81.96
2022-10-24T17:33:28.135Z,82.01
2022-10-24T17:36:36.880Z,82.09
2022-10-24T17:40:06.025Z,82.20
2022-10-24T17:43:18.611Z,82.38
2022-10-24T17:46:21.274Z,82.47
2022-10-24T17:49:23.917Z,82.61
2022-10-24T17:52:26.210Z,82.85
2022-10-24T17:55:46.670Z,83.15
2022-10-24T17:58:51.136Z,83.25
2022-10-24T18:01:53.701Z,83.33
2022-10-24T18:04:56.522Z,83.37
2022-10-24T18:07:58.881Z,83.51
2022-10-24T18:11:03.596Z,83.62
2022-10-24T18:14:05.941Z,83.91
2022-10-24T18:17:08.449Z,83.96
2022-10-24T18:20:11.724Z,84.30
2022-10-24T18:23:14.506Z,84.31
2022-10-24T18:26:19.948Z,84.59
2022-10-24T18:29:22.642Z,84.69
2022-10-24T18:32:25.194Z,84.78
2022-10-24T18:35:30.366Z,84.85
2022-10-24T18:38:35.153Z,85.05
2022-10-24T18:41:41.757Z,85.13
2022-10-24T18:44:47.539Z,85.18
2022-10-24T18:47:54.511Z,85.29
2022-10-24T18:50:56.893Z,85.44
2022-10-24T18:54:07.665Z,85.77
2022-10-24T18:57:25.639Z,85.94
2022-10-24T19:00:30.685Z,86.17
2022-10-24T19:03:37.104Z,86.49
2022-10-24T19:06:40.987Z,86.50
2022-10-24T19:09:45.861Z,86.41
2022-10-24T19:12:48.725Z,86.55
2022-10-24T19:15:57.316Z,86.66
2022-10-24T19:19:01.651Z,86.87
2022-10-24T19:22:03.815Z,87.02
2022-10-24T19:25:06.683Z,87.14
2022-10-24T19:28:12.018Z,87.09
2022-10-24T19:31:15.770Z,87.21
2022-10-24T19:34:18.355Z,87.25
2022-10-24T19:37:20.880Z,87.29
2022-10-24T19:40:23.289Z,87.23
2022-10-24T19:43:29.970Z,87.14
2022-10-24T19:46:32.299Z,87.08
2022-10-24T19:49:34.874Z,87.27
2022-10-24T19:52:37.185Z,87.39
2022-10-24T19:55:40.655Z,87.40
2022-10-24T19:58:43.456Z,87.69
2022-10-24T20:01:46.214Z,87.81
2022-10-24T20:04:49.697Z,87.89
2022-10-24T20:07:52.261Z,88.16
2022-10-24T20:10:55.099Z,88.19
2022-10-24T20:13:57.455Z,88.28
2022-10-24T20:17:00.010Z,88.18
2022-10-24T20:20:04.107Z,88.08
2022-10-24T20:23:06.661Z,87.96
2022-10-24T20:26:17.731Z,88.06
2022-10-24T20:29:20.290Z,88.08
2022-10-24T20:32:22.550Z,88.18
2022-10-24T20:38:29.284Z,88.20
2022-10-24T20:41:32.020Z,88.20
2022-10-24T20:44:34.271Z,88.32
2022-10-24T20:47:37.024Z,88.28
2022-10-24T20:50:39.451Z,88.31
2022-10-24T20:53:42.887Z,88.29
2022-10-24T20:56:45.387Z,88.31
2022-10-24T20:59:47.897Z,88.38
2022-10-24T21:02:52.945Z,88.48
2022-10-24T21:05:55.566Z,88.38
2022-10-24T21:09:00.726Z,88.41
2022-10-24T21:12:03.797Z,88.35
2022-10-24T21:15:06.377Z,88.35
2022-10-24T21:18:08.991Z,88.28
2022-10-24T21:21:13.734Z,88.21
2022-10-24T21:24:18.133Z,87.89
2022-10-24T21:27:20.948Z,87.95
2022-10-24T21:30:23.618Z,87.98
2022-10-24T21:33:25.805Z,87.92
2022-10-24T21:36:28.616Z,87.76
2022-10-24T21:39:31.305Z,87.77
2022-10-24T21:42:34.131Z,87.80
2022-10-24T21:45:36.337Z,87.71
2022-10-24T21:48:39.854Z,87.50
2022-10-24T21:51:43.827Z,87.45
2022-10-24T21:54:46.531Z,87.45
2022-10-24T21:57:48.804Z,87.44
2022-10-24T22:00:51.375Z,87.51
2022-10-24T22:03:55.264Z,87.50
2022-10-24T22:06:57.556Z,87.47
2022-10-24T22:10:00.092Z,87.37
2022-10-24T22:13:02.348Z,87.15
2022-10-24T22:16:06.123Z,86.98
2022-10-24T22:19:08.605Z,86.93
2022-10-24T22:22:11.082Z,86.93
2022-10-24T22:25:13.646Z,86.88
2022-10-24T22:28:16.494Z,86.84
2022-10-24T22:31:19.045Z,87.12
2022-10-24T22:34:24.613Z,87.56
2022-10-24T22:37:31.677Z,87.69
2022-10-24T22:40:34.560Z,87.86
2022-10-24T22:43:37.276Z,87.99
2022-10-24T22:46:51.872Z,88.07
2022-10-24T22:50:06.080Z,88.26
2022-10-24T22:53:13.116Z,88.51
2022-10-24T22:56:23.104Z,88.42
2022-10-24T22:59:26.040Z,88.37
2022-10-24T23:02:33.396Z,88.34
2022-10-24T23:05:56.465Z,88.28
2022-10-24T23:09:00.833Z,88.27
2022-10-24T23:12:16.175Z,88.21
2022-10-24T23:15:20.658Z,88.20
2022-10-24T23:18:23.415Z,88.15
2022-10-24T23:21:32.044Z,88.04
2022-10-24T23:24:35.759Z,88.05
2022-10-24T23:27:43.130Z,87.94
2022-10-24T23:30:47.024Z,87.81
2022-10-24T23:33:49.555Z,87.71
2022-10-24T23:36:56.552Z,87.73
2022-10-24T23:40:18.434Z,87.67
2022-10-24T23:43:21.929Z,87.58
2022-10-24T23:46:27.630Z,87.52
2022-10-24T23:49:35.954Z,87.49
2022-10-24T23:52:59.889Z,87.47
2022-10-24T23:56:02.866Z,87.55
2022-10-24T23:59:06.040Z,87.60
